sensor_id;sensor_type;location;lat;lon;timestamp;P1;durP1;ratioP1;P2;durP2;ratioP2
13204;SDS011;6667;52.634;9.226;2023-07-13T07:23:11;6.07;;;2.30;;
13204;SDS011;6667;52.634;9.226;2023-07-13T07:25:39;9.00;;;2.30;;
13204;SDS011;6667;52.634;9.226;2023-07-13T07:28:07;6.45;;;2.15;;
13204;SDS011;6667;52.634;9.226;2023-07-13T07:31:25;5.63;;;2.47;;
13204;SDS011;6667;52.634;9.226;2023-07-13T07:33:53;6.25;;;2.30;;
13204;SDS011;6667;52.634;9.226;2023-07-13T07:36:20;7.45;;;2.08;;
13204;SDS011;6667;52.634;9.226;2023-07-13T07:38:48;8.82;;;2.55;;
13204;SDS011;6667;52.634;9.226;2023-07-13T07:41:15;4.20;;;1.80;;
13204;SDS011;6667;52.634;9.226;2023-07-13T07:43:49;5.00;;;2.20;;
13204;SDS011;6667;52.634;9.226;2023-07-13T07:46:16;9.00;;;2.92;;
13204;SDS011;6667;52.634;9.226;2023-07-13T07:48:43;7.60;;;2.08;;
13204;SDS011;6667;52.634;9.226;2023-07-13T07:51:10;6.78;;;2.10;;
13204;SDS011;6667;52.634;9.226;2023-07-13T07:53:37;8.23;;;2.60;;
13204;SDS011;6667;52.634;9.226;2023-07-13T07:56:10;5.80;;;2.55;;
13204;SDS011;6667;52.634;9.226;2023-07-13T07:58:36;7.40;;;2.45;;
13204;SDS011;6667;52.634;9.226;2023-07-13T08:01:04;6.15;;;2.45;;
13204;SDS011;6667;52.634;9.226;2023-07-13T08:03:32;5.43;;;2.03;;
13204;SDS011;6667;52.634;9.226;2023-07-13T08:05:59;8.70;;;2.10;;
13204;SDS011;6667;52.634;9.226;2023-07-13T08:08:26;5.68;;;2.13;;
13204;SDS011;6667;52.634;9.226;2023-07-13T08:10:53;6.68;;;3.33;;
13204;SDS011;6667;52.634;9.226;2023-07-13T08:13:23;8.80;;;2.38;;
13204;SDS011;6667;52.634;9.226;2023-07-13T08:15:53;3.38;;;1.70;;
13204;SDS011;6667;52.634;9.226;2023-07-13T08:18:20;6.20;;;2.25;;
13204;SDS011;6667;52.634;9.226;2023-07-13T08:20:47;4.93;;;2.30;;
13204;SDS011;6667;52.634;9.226;2023-07-13T08:23:16;10.98;;;2.58;;
13204;SDS011;6667;52.634;9.226;2023-07-13T08:25:49;6.70;;;2.03;;
13204;SDS011;6667;52.634;9.226;2023-07-13T08:28:17;5.30;;;1.83;;
13204;SDS011;6667;52.634;9.226;2023-07-13T08:30:49;5.05;;;1.83;;
13204;SDS011;6667;52.634;9.226;2023-07-13T08:33:17;5.18;;;1.63;;
13204;SDS011;6667;52.634;9.226;2023-07-13T08:35:53;4.60;;;1.95;;
13204;SDS011;6667;52.634;9.226;2023-07-13T08:38:23;6.70;;;2.10;;
13204;SDS011;6667;52.634;9.226;2023-07-13T08:40:51;7.72;;;3.38;;
13204;SDS011;6667;52.634;9.226;2023-07-13T08:43:25;5.35;;;2.13;;
13204;SDS011;6667;52.634;9.226;2023-07-13T08:46:21;6.22;;;1.67;;
13204;SDS011;6667;52.634;9.226;2023-07-13T08:48:57;3.53;;;1.55;;
13204;SDS011;6667;52.634;9.226;2023-07-13T08:51:29;1.92;;;1.00;;
13204;SDS011;6667;52.634;9.226;2023-07-13T08:54:21;5.38;;;1.63;;
13204;SDS011;6667;52.634;9.226;2023-07-13T08:56:55;13.82;;;2.03;;
13204;SDS011;6667;52.634;9.226;2023-07-13T08:59:44;4.82;;;1.75;;
13204;SDS011;6667;52.634;9.226;2023-07-13T09:02:23;5.28;;;1.33;;
13204;SDS011;6667;52.634;9.226;2023-07-13T09:04:56;3.72;;;1.27;;
13204;SDS011;6667;52.634;9.226;2023-07-13T09:07:31;6.13;;;1.67;;
13204;SDS011;6667;52.634;9.226;2023-07-13T09:10:14;3.38;;;1.65;;
13204;SDS011;6667;52.634;9.226;2023-07-13T09:12:45;3.13;;;1.50;;
13204;SDS011;6667;52.634;9.226;2023-07-13T09:15:21;5.63;;;1.58;;
13204;SDS011;6667;52.634;9.226;2023-07-13T09:17:51;4.40;;;1.50;;
13204;SDS011;6667;52.634;9.226;2023-07-13T09:20:26;3.38;;;1.50;;
13204;SDS011;6667;52.634;9.226;2023-07-13T09:23:11;5.38;;;1.40;;
13204;SDS011;6667;52.634;9.226;2023-07-13T09:25:43;3.03;;;1.50;;
13204;SDS011;6667;52.634;9.226;2023-07-13T09:28:14;4.05;;;1.15;;
13204;SDS011;6667;52.634;9.226;2023-07-13T09:30:46;4.72;;;1.52;;
13204;SDS011;6667;52.634;9.226;2023-07-13T09:33:21;2.92;;;1.27;;
13204;SDS011;6667;52.634;9.226;2023-07-13T09:35:54;3.58;;;1.33;;
13204;SDS011;6667;52.634;9.226;2023-07-13T09:38:34;3.35;;;1.40;;
13204;SDS011;6667;52.634;9.226;2023-07-13T09:41:08;4.07;;;1.33;;
13204;SDS011;6667;52.634;9.226;2023-07-13T09:44:01;4.10;;;1.73;;
13204;SDS011;6667;52.634;9.226;2023-07-13T09:46:36;3.08;;;1.40;;
13204;SDS011;6667;52.634;9.226;2023-07-13T09:49:05;3.53;;;1.73;;
13204;SDS011;6667;52.634;9.226;2023-07-13T09:51:40;5.68;;;1.80;;
13204;SDS011;6667;52.634;9.226;2023-07-13T09:54:17;2.58;;;1.25;;
13204;SDS011;6667;52.634;9.226;2023-07-13T09:56:59;4.13;;;1.52;;
13204;SDS011;6667;52.634;9.226;2023-07-13T09:59:34;4.20;;;1.38;;
13204;SDS011;6667;52.634;9.226;2023-07-13T10:02:18;7.18;;;1.70;;
13204;SDS011;6667;52.634;9.226;2023-07-13T10:05:15;5.13;;;1.58;;
13204;SDS011;6667;52.634;9.226;2023-07-13T10:07:51;6.07;;;1.92;;
13204;SDS011;6667;52.634;9.226;2023-07-13T10:10:23;3.95;;;1.48;;
13204;SDS011;6667;52.634;9.226;2023-07-13T10:19:44;3.03;;;1.38;;
13204;SDS011;6667;52.634;9.226;2023-07-13T10:22:18;5.60;;;1.70;;
13204;SDS011;6667;52.634;9.226;2023-07-13T10:25:19;4.40;;;1.77;;
13204;SDS011;6667;52.634;9.226;2023-07-13T10:31:11;3.15;;;1.30;;
13204;SDS011;6667;52.634;9.226;2023-07-13T10:33:59;5.05;;;1.83;;
13204;SDS011;6667;52.634;9.226;2023-07-13T10:36:28;8.48;;;1.52;;
13204;SDS011;6667;52.634;9.226;2023-07-13T10:39:03;3.17;;;1.55;;
13204;SDS011;6667;52.634;9.226;2023-07-13T10:41:41;7.55;;;1.60;;
13204;SDS011;6667;52.634;9.226;2023-07-13T10:44:15;3.97;;;1.40;;
13204;SDS011;6667;52.634;9.226;2023-07-13T10:50:45;3.50;;;1.35;;
13204;SDS011;6667;52.634;9.226;2023-07-13T10:53:40;3.53;;;1.52;;
13204;SDS011;6667;52.634;9.226;2023-07-13T10:56:19;6.40;;;1.40;;
13204;SDS011;6667;52.634;9.226;2023-07-13T10:59:01;2.55;;;1.10;;
13204;SDS011;6667;52.634;9.226;2023-07-13T11:01:40;2.45;;;1.13;;
13204;SDS011;6667;52.634;9.226;2023-07-13T11:04:19;2.65;;;1.17;;
13204;SDS011;6667;52.634;9.226;2023-07-13T11:06:50;6.50;;;1.70;;
13204;SDS011;6667;52.634;9.226;2023-07-13T11:09:59;2.45;;;1.30;;
13204;SDS011;6667;52.634;9.226;2023-07-13T11:12:54;2.78;;;1.20;;
13204;SDS011;6667;52.634;9.226;2023-07-13T11:15:39;3.40;;;1.65;;
13204;SDS011;6667;52.634;9.226;2023-07-13T11:18:19;2.50;;;1.30;;
13204;SDS011;6667;52.634;9.226;2023-07-13T11:20:50;3.22;;;1.55;;
13204;SDS011;6667;52.634;9.226;2023-07-13T11:23:31;2.45;;;1.20;;
13204;SDS011;6667;52.634;9.226;2023-07-13T11:26:01;3.33;;;1.35;;
13204;SDS011;6667;52.634;9.226;2023-07-13T11:28:41;1.77;;;1.20;;
13204;SDS011;6667;52.634;9.226;2023-07-13T11:31:14;5.60;;;1.65;;
13204;SDS011;6667;52.634;9.226;2023-07-13T11:33:56;4.05;;;1.45;;
13204;SDS011;6667;52.634;9.226;2023-07-13T11:36:56;2.35;;;1.35;;
13204;SDS011;6667;52.634;9.226;2023-07-13T11:39:32;3.88;;;1.60;;
13204;SDS011;6667;52.634;9.226;2023-07-13T11:42:14;3.75;;;1.50;;
13204;SDS011;6667;52.634;9.226;2023-07-13T11:44:47;5.45;;;1.63;;
13204;SDS011;6667;52.634;9.226;2023-07-13T11:47:19;2.90;;;1.30;;
13204;SDS011;6667;52.634;9.226;2023-07-13T11:53:35;3.10;;;1.58;;
13204;SDS011;6667;52.634;9.226;2023-07-13T11:56:08;2.05;;;1.38;;
13204;SDS011;6667;52.634;9.226;2023-07-13T11:58:59;2.70;;;1.27;;
13204;SDS011;6667;52.634;9.226;2023-07-13T12:02:13;2.60;;;1.38;;
13204;SDS011;6667;52.634;9.226;2023-07-13T12:04:53;3.55;;;1.38;;
13204;SDS011;6667;52.634;9.226;2023-07-13T12:07:37;3.88;;;1.30;;
13204;SDS011;6667;52.634;9.226;2023-07-13T12:10:13;2.33;;;1.45;;
13204;SDS011;6667;52.634;9.226;2023-07-13T12:13:22;4.35;;;1.60;;
13204;SDS011;6667;52.634;9.226;2023-07-13T12:15:56;3.50;;;1.70;;
13204;SDS011;6667;52.634;9.226;2023-07-13T12:18:43;3.53;;;1.38;;
13204;SDS011;6667;52.634;9.226;2023-07-13T12:21:18;2.67;;;1.38;;
13204;SDS011;6667;52.634;9.226;2023-07-13T12:24:01;1.95;;;1.20;;
13204;SDS011;6667;52.634;9.226;2023-07-13T12:26:30;5.50;;;1.27;;
13204;SDS011;6667;52.634;9.226;2023-07-13T12:29:13;6.95;;;1.60;;
13204;SDS011;6667;52.634;9.226;2023-07-13T12:31:59;5.97;;;1.42;;
13204;SDS011;6667;52.634;9.226;2023-07-13T12:34:49;5.20;;;1.23;;
13204;SDS011;6667;52.634;9.226;2023-07-13T12:37:21;1.13;;;0.82;;
13204;SDS011;6667;52.634;9.226;2023-07-13T12:40:03;1.75;;;0.60;;
13204;SDS011;6667;52.634;9.226;2023-07-13T12:42:46;1.85;;;0.68;;
13204;SDS011;6667;52.634;9.226;2023-07-13T12:45:54;3.03;;;0.80;;
13204;SDS011;6667;52.634;9.226;2023-07-13T12:48:47;2.72;;;1.10;;
13204;SDS011;6667;52.634;9.226;2023-07-13T12:51:31;1.40;;;0.77;;
13204;SDS011;6667;52.634;9.226;2023-07-13T12:54:10;1.45;;;1.05;;
13204;SDS011;6667;52.634;9.226;2023-07-13T12:56:49;5.40;;;1.00;;
13204;SDS011;6667;52.634;9.226;2023-07-13T12:59:22;0.75;;;0.65;;
13204;SDS011;6667;52.634;9.226;2023-07-13T13:01:56;1.15;;;0.80;;
13204;SDS011;6667;52.634;9.226;2023-07-13T13:04:31;1.10;;;0.75;;
13204;SDS011;6667;52.634;9.226;2023-07-13T13:07:23;0.63;;;0.60;;
13204;SDS011;6667;52.634;9.226;2023-07-13T13:10:23;1.17;;;0.80;;
13204;SDS011;6667;52.634;9.226;2023-07-13T13:12:59;1.40;;;0.70;;
13204;SDS011;6667;52.634;9.226;2023-07-13T13:15:33;1.27;;;1.15;;
13204;SDS011;6667;52.634;9.226;2023-07-13T13:18:02;0.90;;;0.90;;
13204;SDS011;6667;52.634;9.226;2023-07-13T13:20:42;1.00;;;0.77;;
13204;SDS011;6667;52.634;9.226;2023-07-13T13:33:32;0.65;;;0.50;;
13204;SDS011;6667;52.634;9.226;2023-07-13T13:36:14;0.28;;;0.28;;
13204;SDS011;6667;52.634;9.226;2023-07-13T13:38:47;0.60;;;0.60;;
13204;SDS011;6667;52.634;9.226;2023-07-13T13:41:41;1.38;;;1.17;;
13204;SDS011;6667;52.634;9.226;2023-07-13T13:54:08;1.75;;;1.08;;
13204;SDS011;6667;52.634;9.226;2023-07-13T13:57:14;3.40;;;1.17;;
13204;SDS011;6667;52.634;9.226;2023-07-13T14:00:12;1.83;;;1.45;;
13204;SDS011;6667;52.634;9.226;2023-07-13T14:02:47;3.35;;;1.45;;
13204;SDS011;6667;52.634;9.226;2023-07-13T14:08:31;1.40;;;1.05;;
13204;SDS011;6667;52.634;9.226;2023-07-13T14:11:04;2.53;;;1.20;;
13204;SDS011;6667;52.634;9.226;2023-07-13T15:05:18;1.17;;;1.08;;
13204;SDS011;6667;52.634;9.226;2023-07-13T15:49:53;2.25;;;1.40;;
13204;SDS011;6667;52.634;9.226;2023-07-13T16:16:42;2.97;;;1.83;;
13204;SDS011;6667;52.634;9.226;2023-07-13T16:23:07;2.25;;;1.95;;
13204;SDS011;6667;52.634;9.226;2023-07-13T16:29:55;4.00;;;1.67;;
13204;SDS011;6667;52.634;9.226;2023-07-13T16:46:43;3.70;;;1.70;;
13204;SDS011;6667;52.634;9.226;2023-07-13T16:49:22;2.60;;;1.92;;
13204;SDS011;6667;52.634;9.226;2023-07-13T17:22:29;4.45;;;1.95;;
13204;SDS011;6667;52.634;9.226;2023-07-13T17:25:11;2.47;;;2.15;;
13204;SDS011;6667;52.634;9.226;2023-07-13T17:27:42;1.75;;;1.65;;
13204;SDS011;6667;52.634;9.226;2023-07-13T17:30:28;2.33;;;1.80;;
13204;SDS011;6667;52.634;9.226;2023-07-13T17:33:04;3.67;;;2.17;;
13204;SDS011;6667;52.634;9.226;2023-07-13T17:35:54;3.08;;;2.33;;
13204;SDS011;6667;52.634;9.226;2023-07-13T17:38:37;3.33;;;2.28;;
13204;SDS011;6667;52.634;9.226;2023-07-13T17:41:19;7.13;;;2.30;;
13204;SDS011;6667;52.634;9.226;2023-07-13T17:43:53;3.25;;;1.92;;
13204;SDS011;6667;52.634;9.226;2023-07-13T17:46:55;2.35;;;1.70;;
13204;SDS011;6667;52.634;9.226;2023-07-13T17:49:24;4.35;;;2.08;;
13204;SDS011;6667;52.634;9.226;2023-07-13T17:52:12;3.00;;;2.42;;
13204;SDS011;6667;52.634;9.226;2023-07-13T17:54:39;4.28;;;1.98;;
13204;SDS011;6667;52.634;9.226;2023-07-13T17:57:06;2.60;;;2.33;;
13204;SDS011;6667;52.634;9.226;2023-07-13T17:59:33;3.88;;;2.47;;
13204;SDS011;6667;52.634;9.226;2023-07-13T18:02:00;3.20;;;1.95;;
13204;SDS011;6667;52.634;9.226;2023-07-13T18:04:27;2.35;;;2.15;;
13204;SDS011;6667;52.634;9.226;2023-07-13T18:06:54;4.50;;;2.03;;
13204;SDS011;6667;52.634;9.226;2023-07-13T18:09:31;2.65;;;2.33;;
13204;SDS011;6667;52.634;9.226;2023-07-13T18:12:12;3.13;;;2.50;;
13204;SDS011;6667;52.634;9.226;2023-07-13T18:14:48;2.05;;;1.85;;
13204;SDS011;6667;52.634;9.226;2023-07-13T18:17:17;3.40;;;2.40;;
13204;SDS011;6667;52.634;9.226;2023-07-13T18:20:06;4.70;;;1.98;;
13204;SDS011;6667;52.634;9.226;2023-07-13T18:22:54;2.40;;;2.20;;
13204;SDS011;6667;52.634;9.226;2023-07-13T18:25:27;2.50;;;1.85;;
13204;SDS011;6667;52.634;9.226;2023-07-13T18:28:43;3.67;;;2.10;;
13204;SDS011;6667;52.634;9.226;2023-07-13T18:31:16;4.45;;;2.58;;
13204;SDS011;6667;52.634;9.226;2023-07-13T18:33:45;4.07;;;2.22;;
13204;SDS011;6667;52.634;9.226;2023-07-13T18:36:30;3.67;;;2.20;;
13204;SDS011;6667;52.634;9.226;2023-07-13T18:39:00;2.42;;;1.75;;
13204;SDS011;6667;52.634;9.226;2023-07-13T18:57:19;3.35;;;2.28;;
13204;SDS011;6667;52.634;9.226;2023-07-13T19:03:11;4.68;;;2.45;;
13204;SDS011;6667;52.634;9.226;2023-07-13T19:06:17;4.53;;;2.40;;
13204;SDS011;6667;52.634;9.226;2023-07-13T19:09:16;4.38;;;2.35;;
13204;SDS011;6667;52.634;9.226;2023-07-13T19:12:10;4.93;;;2.05;;
13204;SDS011;6667;52.634;9.226;2023-07-13T19:22:01;3.20;;;2.25;;
13204;SDS011;6667;52.634;9.226;2023-07-13T19:28:25;4.55;;;2.45;;
13204;SDS011;6667;52.634;9.226;2023-07-13T19:31:05;3.20;;;2.40;;
13204;SDS011;6667;52.634;9.226;2023-07-13T19:34:13;2.20;;;2.00;;
13204;SDS011;6667;52.634;9.226;2023-07-13T19:36:46;4.07;;;2.25;;
13204;SDS011;6667;52.634;9.226;2023-07-13T19:53:24;2.85;;;2.60;;
13204;SDS011;6667;52.634;9.226;2023-07-13T19:58:38;3.78;;;2.42;;
13204;SDS011;6667;52.634;9.226;2023-07-13T20:01:14;3.22;;;2.28;;
13204;SDS011;6667;52.634;9.226;2023-07-13T20:03:55;3.20;;;2.22;;
13204;SDS011;6667;52.634;9.226;2023-07-13T20:13:36;3.80;;;2.70;;
13204;SDS011;6667;52.634;9.226;2023-07-13T20:16:11;4.07;;;2.47;;
13204;SDS011;6667;52.634;9.226;2023-07-13T20:18:51;4.22;;;2.38;;
13204;SDS011;6667;52.634;9.226;2023-07-13T20:21:34;3.50;;;2.67;;
13204;SDS011;6667;52.634;9.226;2023-07-13T20:37:03;2.75;;;2.47;;
13204;SDS011;6667;52.634;9.226;2023-07-13T20:39:52;4.20;;;2.85;;
13204;SDS011;6667;52.634;9.226;2023-07-13T20:42:32;4.95;;;2.75;;
13204;SDS011;6667;52.634;9.226;2023-07-13T20:51:53;3.97;;;3.00;;
13204;SDS011;6667;52.634;9.226;2023-07-13T20:54:27;3.28;;;2.78;;
13204;SDS011;6667;52.634;9.226;2023-07-13T20:56:56;3.95;;;3.10;;
13204;SDS011;6667;52.634;9.226;2023-07-13T21:02:27;4.97;;;3.00;;
13204;SDS011;6667;52.634;9.226;2023-07-13T21:05:34;4.53;;;3.07;;
13204;SDS011;6667;52.634;9.226;2023-07-13T21:08:09;4.33;;;3.30;;
13204;SDS011;6667;52.634;9.226;2023-07-13T21:10:41;6.00;;;3.80;;
13204;SDS011;6667;52.634;9.226;2023-07-13T21:13:13;5.83;;;3.27;;
13204;SDS011;6667;52.634;9.226;2023-07-13T21:15:45;4.33;;;3.30;;
13204;SDS011;6667;52.634;9.226;2023-07-13T21:18:18;5.43;;;3.80;;
13204;SDS011;6667;52.634;9.226;2023-07-13T21:20:48;5.65;;;3.78;;
13204;SDS011;6667;52.634;9.226;2023-07-13T21:23:24;5.10;;;3.67;;
13204;SDS011;6667;52.634;9.226;2023-07-13T21:28:51;5.10;;;3.97;;
13204;SDS011;6667;52.634;9.226;2023-07-13T21:31:22;4.50;;;3.75;;
13204;SDS011;6667;52.634;9.226;2023-07-13T21:37:22;8.43;;;3.73;;
13204;SDS011;6667;52.634;9.226;2023-07-13T21:39:54;5.28;;;4.13;;
13204;SDS011;6667;52.634;9.226;2023-07-13T21:42:25;9.00;;;5.07;;
13204;SDS011;6667;52.634;9.226;2023-07-13T21:44:53;10.30;;;4.10;;
13204;SDS011;6667;52.634;9.226;2023-07-13T21:47:22;6.67;;;4.20;;
13204;SDS011;6667;52.634;9.226;2023-07-13T21:49:49;6.23;;;4.40;;
13204;SDS011;6667;52.634;9.226;2023-07-13T21:52:31;9.37;;;4.63;;
13204;SDS011;6667;52.634;9.226;2023-07-13T21:55:01;4.30;;;3.90;;
13204;SDS011;6667;52.634;9.226;2023-07-13T21:57:44;6.23;;;4.63;;
13204;SDS011;6667;52.634;9.226;2023-07-13T22:00:19;10.32;;;5.28;;
13204;SDS011;6667;52.634;9.226;2023-07-13T22:02:50;7.03;;;4.80;;
13204;SDS011;6667;52.634;9.226;2023-07-13T22:05:52;6.07;;;4.20;;
13204;SDS011;6667;52.634;9.226;2023-07-13T22:08:28;6.27;;;4.63;;
13204;SDS011;6667;52.634;9.226;2023-07-13T22:11:17;5.70;;;4.22;;
13204;SDS011;6667;52.634;9.226;2023-07-13T22:13:50;7.45;;;4.30;;
13204;SDS011;6667;52.634;9.226;2023-07-13T22:16:24;5.20;;;4.10;;
13204;SDS011;6667;52.634;9.226;2023-07-13T22:19:25;4.30;;;3.43;;
13204;SDS011;6667;52.634;9.226;2023-07-13T22:21:57;5.15;;;3.78;;
13204;SDS011;6667;52.634;9.226;2023-07-13T22:24:27;8.47;;;4.10;;
13204;SDS011;6667;52.634;9.226;2023-07-13T22:27:00;9.43;;;4.60;;
13204;SDS011;6667;52.634;9.226;2023-07-13T22:29:44;5.10;;;3.83;;
13204;SDS011;6667;52.634;9.226;2023-07-13T22:32:54;4.00;;;3.67;;
